Time;durP1;ratioP1;P1;durP2;ratioP2;P2;SDS_P1;SDS_P2;PMS_P1;PMS_P2;Temp;Humidity;BMP_temperature;BMP_pressure;BME280_temperature;BME280_humidity;BME280_pressure;Samples;Min_cycle;Max_cycle;Signal;HPM_P1;HPM_P2
2021/04/25 00:01:32;;;;;;;12.90;7.13;;;7.20;99.90;;;;;;446908;266;28113;-70
2021/04/25 00:03:33;;;;;;;11.77;6.70;;;7.20;99.90;;;;;;446847;265;28522;-70
2021/04/25 00:05:34;;;;;;;13.73;7.50;;;7.20;99.90;;;;;;446947;266;28641;-71
2021/04/25 00:07:36;;;;;;;12.80;7.20;;;7.20;99.90;;;;;;446935;266;28509;-70
2021/04/25 00:09:37;;;;;;;12.97;7.73;;;7.20;99.90;;;;;;446932;266;27978;-70
2021/04/25 00:11:38;;;;;;;11.20;6.93;;;7.20;99.90;;;;;;446882;266;28017;-71
2021/04/25 00:13:39;;;;;;;14.03;7.20;;;7.10;99.90;;;;;;446869;266;27975;-71
2021/04/25 00:15:41;;;;;;;12.33;7.40;;;7.10;99.90;;;;;;446904;266;27658;-72
2021/04/25 00:17:42;;;;;;;13.70;7.73;;;7.10;99.90;;;;;;446887;266;28082;-71
2021/04/25 00:19:43;;;;;;;16.43;6.80;;;7.10;99.90;;;;;;446915;266;28054;-72
2021/04/25 00:21:44;;;;;;;12.27;7.67;;;7.10;99.90;;;;;;446914;266;27839;-72
2021/04/25 00:23:46;;;;;;;10.33;6.90;;;7.10;99.90;;;;;;446879;266;27656;-71
2021/04/25 00:25:47;;;;;;;9.73;6.93;;;7.10;99.90;;;;;;446897;266;27659;-72
2021/04/25 00:27:48;;;;;;;12.40;7.90;;;7.00;99.90;;;;;;446896;266;28582;-71
2021/04/25 00:29:49;;;;;;;12.50;6.90;;;7.10;99.90;;;;;;446881;266;28479;-72
2021/04/25 00:31:51;;;;;;;11.97;7.47;;;7.10;99.90;;;;;;452363;249;28131;-71
2021/04/25 00:33:52;;;;;;;10.73;7.17;;;7.00;99.90;;;;;;458665;258;28420;-71
2021/04/25 00:35:53;;;;;;;10.77;6.50;;;7.00;99.90;;;;;;458681;258;27649;-72
2021/04/25 00:37:54;;;;;;;13.13;7.80;;;7.00;99.90;;;;;;458662;255;27555;-71
2021/04/25 00:39:56;;;;;;;11.80;7.43;;;7.00;99.90;;;;;;458661;258;27962;-70
2021/04/25 00:41:57;;;;;;;14.10;7.00;;;6.90;99.90;;;;;;458675;256;28121;-71
2021/04/25 00:43:58;;;;;;;12.33;7.63;;;6.90;99.90;;;;;;458691;258;27905;-71
2021/04/25 00:45:59;;;;;;;13.30;7.47;;;6.90;99.90;;;;;;458700;258;27832;-73
2021/04/25 00:48:01;;;;;;;10.43;7.10;;;6.80;99.90;;;;;;458690;258;27438;-71
2021/04/25 00:50:02;;;;;;;11.03;6.40;;;6.90;99.90;;;;;;458680;258;28165;-72
2021/04/25 00:52:03;;;;;;;10.73;6.60;;;6.90;99.90;;;;;;458668;258;28015;-71
2021/04/25 00:54:04;;;;;;;15.57;7.30;;;6.90;99.90;;;;;;458657;258;28615;-71
2021/04/25 00:56:06;;;;;;;10.87;6.97;;;6.80;99.90;;;;;;458686;258;28594;-71
2021/04/25 00:58:07;;;;;;;12.40;7.60;;;6.70;99.90;;;;;;458720;255;28632;-71
2021/04/25 01:00:08;;;;;;;12.37;6.60;;;6.70;99.90;;;;;;458724;258;28039;-71
2021/04/25 01:02:09;;;;;;;13.40;7.03;;;6.70;99.90;;;;;;458716;258;27892;-71
2021/04/25 01:04:11;;;;;;;12.30;7.57;;;6.70;99.90;;;;;;458681;258;27681;-71
2021/04/25 01:06:12;;;;;;;10.13;7.03;;;6.70;99.90;;;;;;458713;258;28018;-71
2021/04/25 01:08:13;;;;;;;15.13;8.00;;;6.60;99.90;;;;;;458673;258;27923;-71
2021/04/25 01:10:14;;;;;;;14.23;7.47;;;6.60;99.90;;;;;;458699;258;27967;-71
2021/04/25 01:12:16;;;;;;;15.90;7.30;;;6.60;99.90;;;;;;458675;258;27760;-71
2021/04/25 01:14:17;;;;;;;10.97;7.23;;;6.60;99.90;;;;;;458661;258;28051;-71
2021/04/25 01:16:18;;;;;;;14.47;7.53;;;6.50;99.90;;;;;;458667;258;27945;-71
2021/04/25 01:18:19;;;;;;;12.00;7.00;;;6.50;99.90;;;;;;458664;255;28218;-70
2021/04/25 01:20:21;;;;;;;12.10;7.63;;;6.50;99.90;;;;;;458681;258;28530;-73
2021/04/25 01:22:22;;;;;;;16.43;8.43;;;6.50;99.90;;;;;;458673;258;28495;-71
2021/04/25 01:24:23;;;;;;;14.13;7.30;;;6.50;99.90;;;;;;458684;258;27899;-71
2021/04/25 01:26:24;;;;;;;13.33;7.67;;;6.50;99.90;;;;;;458685;258;27451;-71
2021/04/25 01:28:26;;;;;;;11.43;7.33;;;6.40;99.90;;;;;;458674;258;28116;-70
2021/04/25 01:30:30;;;;;;;13.03;7.03;;;6.40;99.90;;;;;;458678;258;27538;-72
2021/04/25 01:32:31;;;;;;;13.07;6.50;;;6.40;99.90;;;;;;462968;249;28454;-71
2021/04/25 01:34:32;;;;;;;11.70;7.60;;;6.40;99.90;;;;;;467354;254;28165;-70
2021/04/25 01:36:34;;;;;;;11.07;7.23;;;6.40;99.90;;;;;;467345;254;28091;-71
2021/04/25 01:38:35;;;;;;;7.77;5.90;;;6.30;99.90;;;;;;467373;254;28175;-72
2021/04/25 01:40:36;;;;;;;12.63;8.30;;;6.40;99.90;;;;;;467352;254;28012;-71
2021/04/25 01:42:37;;;;;;;10.37;6.90;;;6.40;99.90;;;;;;467330;254;28080;-71
2021/04/25 01:44:39;;;;;;;14.67;7.10;;;6.30;99.90;;;;;;467345;254;27663;-71
2021/04/25 01:46:40;;;;;;;16.13;6.80;;;6.30;99.90;;;;;;467287;254;28147;-71
2021/04/25 01:48:41;;;;;;;16.73;7.50;;;6.30;99.90;;;;;;467310;254;27944;-71
2021/04/25 01:50:43;;;;;;;14.03;7.37;;;6.20;99.90;;;;;;467272;254;28571;-71
2021/04/25 01:52:44;;;;;;;8.60;6.53;;;6.20;99.90;;;;;;458736;248;27725;-71
2021/04/25 01:54:45;;;;;;;12.40;7.47;;;6.20;99.90;;;;;;459045;257;28132;-71
2021/04/25 01:56:46;;;;;;;8.33;5.97;;;6.20;99.90;;;;;;469504;253;27926;-71
2021/04/25 01:58:48;;;;;;;12.37;6.77;;;6.20;99.90;;;;;;458990;257;28398;-71
2021/04/25 02:00:49;;;;;;;8.17;6.23;;;6.10;99.90;;;;;;469502;253;28555;-71
2021/04/25 02:02:50;;;;;;;15.60;8.43;;;6.10;99.90;;;;;;459010;257;28157;-71
2021/04/25 02:04:51;;;;;;;11.30;7.30;;;6.10;99.90;;;;;;469549;253;27951;-71
2021/04/25 02:06:53;;;;;;;10.17;6.90;;;6.10;99.90;;;;;;459029;257;28293;-71
2021/04/25 02:08:54;;;;;;;13.17;6.70;;;6.10;99.90;;;;;;469516;253;28485;-72
2021/04/25 02:10:55;;;;;;;10.90;7.10;;;6.00;99.90;;;;;;459012;255;28328;-71
2021/04/25 02:12:56;;;;;;;11.30;7.70;;;5.90;99.90;;;;;;469521;253;27943;-71
2021/04/25 02:14:58;;;;;;;10.03;6.40;;;5.90;99.90;;;;;;459013;255;28130;-70
2021/04/25 02:16:59;;;;;;;8.67;6.00;;;6.00;99.90;;;;;;469537;253;27810;-70
2021/04/25 02:19:00;;;;;;;10.63;7.30;;;5.90;99.90;;;;;;459005;257;29050;-71
2021/04/25 02:21:01;;;;;;;15.60;8.10;;;5.90;99.90;;;;;;469540;253;28722;-71
2021/04/25 02:23:03;;;;;;;12.37;7.00;;;5.80;99.90;;;;;;459015;258;28941;-71
2021/04/25 02:25:04;;;;;;;16.93;7.70;;;5.80;99.90;;;;;;469537;253;27412;-71
2021/04/25 02:27:05;;;;;;;13.30;8.20;;;5.80;99.90;;;;;;458997;257;28577;-72
2021/04/25 02:29:06;;;;;;;12.77;8.13;;;5.80;99.90;;;;;;469479;252;28646;-71
2021/04/25 02:31:08;;;;;;;10.67;6.73;;;5.70;99.90;;;;;;458997;257;28542;-71
2021/04/25 02:33:09;;;;;;;13.33;7.33;;;5.70;99.90;;;;;;469235;253;27983;-71
2021/04/25 02:35:10;;;;;;;16.47;7.63;;;5.70;99.90;;;;;;458999;258;27838;-71
2021/04/25 02:37:11;;;;;;;14.37;7.83;;;5.70;99.90;;;;;;469549;253;28870;-71
2021/04/25 02:39:13;;;;;;;10.80;7.30;;;5.60;99.90;;;;;;459085;255;28965;-70
2021/04/25 02:41:14;;;;;;;14.85;7.82;;;5.60;99.90;;;;;;469541;252;28676;-70
2021/04/25 02:43:15;;;;;;;17.10;8.25;;;5.60;99.90;;;;;;458999;253;27606;-72
2021/04/25 02:45:16;;;;;;;18.53;7.50;;;5.60;99.90;;;;;;469489;253;27865;-71
2021/04/25 02:47:18;;;;;;;13.35;7.80;;;5.60;99.90;;;;;;458987;257;28496;-71
2021/04/25 02:49:19;;;;;;;12.85;7.43;;;5.60;99.90;;;;;;469494;252;27464;-70
2021/04/25 02:51:20;;;;;;;10.77;7.25;;;5.50;99.90;;;;;;451223;262;27509;-72
2021/04/25 02:53:21;;;;;;;13.80;7.37;;;5.50;99.90;;;;;;469540;252;27473;-72
2021/04/25 02:55:23;;;;;;;13.10;6.97;;;5.50;99.90;;;;;;458988;257;27572;-71
2021/04/25 02:57:24;;;;;;;11.30;8.07;;;5.50;99.90;;;;;;469491;253;28280;-71
2021/04/25 02:59:25;;;;;;;12.73;7.20;;;5.50;99.90;;;;;;451248;262;28941;-70
2021/04/25 03:01:26;;;;;;;14.37;7.40;;;5.50;99.90;;;;;;469476;253;28399;-70
2021/04/25 03:03:28;;;;;;;9.82;6.45;;;5.50;99.90;;;;;;459058;253;28552;-72
2021/04/25 03:05:29;;;;;;;11.68;6.85;;;5.50;99.90;;;;;;469355;253;27411;-71
2021/04/25 03:07:30;;;;;;;9.88;6.28;;;5.50;99.90;;;;;;459067;253;27607;-72
2021/04/25 03:09:31;;;;;;;10.20;7.20;;;5.40;99.90;;;;;;469474;253;27472;-71
2021/04/25 03:11:33;;;;;;;11.80;6.78;;;5.30;99.90;;;;;;451252;262;27501;-70
2021/04/25 03:13:34;;;;;;;11.95;7.75;;;5.30;99.90;;;;;;469549;253;28036;-71
2021/04/25 03:15:35;;;;;;;12.50;7.75;;;5.30;99.90;;;;;;459005;257;28088;-70
2021/04/25 03:17:37;;;;;;;16.80;7.80;;;5.30;99.90;;;;;;469500;252;27448;-71
2021/04/25 03:19:38;;;;;;;16.33;7.20;;;5.20;99.90;;;;;;459012;257;27536;-71
2021/04/25 03:21:39;;;;;;;11.77;7.37;;;5.20;99.90;;;;;;469539;253;27420;-71
2021/04/25 03:23:40;;;;;;;11.07;7.28;;;5.20;99.90;;;;;;451257;262;28373;-72
2021/04/25 03:25:42;;;;;;;13.90;8.10;;;5.20;99.90;;;;;;469546;253;27980;-71
2021/04/25 03:27:43;;;;;;;13.00;7.65;;;5.20;99.90;;;;;;459045;257;29358;-71
2021/04/25 03:29:44;;;;;;;12.70;7.55;;;5.20;99.90;;;;;;469446;253;27452;-71
2021/04/25 03:31:45;;;;;;;11.30;6.73;;;5.10;99.90;;;;;;458989;258;27624;-71
2021/04/25 03:33:47;;;;;;;12.23;8.13;;;5.10;99.90;;;;;;469490;253;27657;-71
2021/04/25 03:35:48;;;;;;;13.35;7.47;;;5.10;99.90;;;;;;451261;262;27476;-71
2021/04/25 03:37:49;;;;;;;10.67;7.23;;;5.10;99.90;;;;;;469555;253;27464;-71
2021/04/25 03:39:50;;;;;;;12.20;7.30;;;5.10;99.90;;;;;;459025;257;28964;-71
2021/04/25 03:41:52;;;;;;;12.37;7.47;;;5.20;99.90;;;;;;469529;253;28474;-71
2021/04/25 03:43:53;;;;;;;10.75;7.10;;;5.10;99.90;;;;;;459009;255;27689;-73
2021/04/25 03:45:54;;;;;;;11.32;7.50;;;5.10;99.90;;;;;;469508;253;27435;-71
2021/04/25 03:47:56;;;;;;;14.10;7.90;;;5.10;99.90;;;;;;451264;262;27517;-71
2021/04/25 03:49:57;;;;;;;9.68;6.43;;;5.00;99.90;;;;;;469523;253;27671;-71
2021/04/25 03:51:58;;;;;;;14.93;7.45;;;5.00;99.90;;;;;;459014;257;27999;-71
2021/04/25 03:53:59;;;;;;;14.77;7.93;;;5.00;99.90;;;;;;469507;253;27444;-73
2021/04/25 03:56:01;;;;;;;10.15;6.53;;;5.00;99.90;;;;;;459019;257;27680;-71
2021/04/25 03:58:03;;;;;;;17.02;7.78;;;5.00;99.90;;;;;;469508;253;27460;-72
2021/04/25 04:00:03;;;;;;;10.80;7.55;;;5.00;99.90;;;;;;458954;253;27585;-71
2021/04/25 04:02:04;;;;;;;14.95;7.70;;;5.00;99.90;;;;;;469495;252;27818;-71
2021/04/25 04:04:06;;;;;;;12.52;7.03;;;4.90;99.90;;;;;;458994;258;28058;-71
2021/04/25 04:06:07;;;;;;;12.37;8.43;;;4.90;99.90;;;;;;469521;253;27493;-71
2021/04/25 04:08:08;;;;;;;15.40;7.75;;;4.80;99.90;;;;;;459021;257;27581;-71
2021/04/25 04:10:09;;;;;;;12.75;8.35;;;4.80;99.90;;;;;;469527;253;27443;-71
2021/04/25 04:12:12;;;;;;;13.27;7.60;;;4.80;99.90;;;;;;451225;255;27593;-71
2021/04/25 04:14:12;;;;;;;20.15;7.90;;;4.90;99.90;;;;;;469459;253;28029;-71
2021/04/25 04:16:13;;;;;;;8.70;6.80;;;4.90;99.90;;;;;;458979;257;28083;-71
2021/04/25 04:18:14;;;;;;;11.82;7.10;;;4.80;99.90;;;;;;469463;253;27547;-71
2021/04/25 04:20:16;;;;;;;14.27;8.38;;;4.80;99.90;;;;;;459027;258;27687;-71
2021/04/25 04:22:17;;;;;;;14.25;7.82;;;4.80;99.90;;;;;;469535;253;27516;-70
2021/04/25 04:24:18;;;;;;;14.18;8.02;;;4.80;99.90;;;;;;451241;262;27503;-72
2021/04/25 04:26:19;;;;;;;11.55;7.37;;;4.90;99.90;;;;;;469511;253;28038;-71
2021/04/25 04:28:21;;;;;;;10.95;7.15;;;4.90;99.90;;;;;;459049;257;28157;-71
2021/04/25 04:30:22;;;;;;;11.80;6.87;;;4.80;99.90;;;;;;469473;253;27511;-71
2021/04/25 04:32:23;;;;;;;18.55;7.93;;;4.80;99.90;;;;;;459030;253;27565;-71
2021/04/25 04:34:24;;;;;;;15.30;8.23;;;4.80;99.90;;;;;;469522;253;27537;-72
2021/04/25 04:36:26;;;;;;;13.40;7.72;;;4.80;99.90;;;;;;451235;262;27540;-71
2021/04/25 04:38:27;;;;;;;15.95;7.75;;;4.80;99.90;;;;;;469528;252;28019;-72
2021/04/25 04:40:28;;;;;;;11.73;7.75;;;4.80;99.90;;;;;;458991;258;28164;-71
2021/04/25 04:42:30;;;;;;;12.65;7.62;;;4.80;99.90;;;;;;469517;253;27550;-71
2021/04/25 04:44:31;;;;;;;17.52;7.95;;;4.70;99.90;;;;;;458989;257;27631;-71
2021/04/25 04:46:32;;;;;;;16.98;8.45;;;4.70;99.90;;;;;;469572;253;27419;-70
2021/04/25 04:48:33;;;;;;;13.82;8.00;;;4.70;99.90;;;;;;451251;262;27500;-71
2021/04/25 04:50:35;;;;;;;15.18;7.45;;;4.70;99.90;;;;;;469478;252;28598;-70
2021/04/25 04:52:36;;;;;;;16.25;8.05;;;4.80;99.90;;;;;;459001;255;27624;-71
2021/04/25 04:54:37;;;;;;;10.68;7.15;;;4.80;99.90;;;;;;469566;252;27472;-72
2021/04/25 04:56:38;;;;;;;15.57;7.78;;;4.80;99.90;;;;;;459036;257;27552;-71
2021/04/25 04:58:40;;;;;;;18.25;8.00;;;4.80;99.90;;;;;;469543;253;27459;-71
2021/04/25 05:00:41;;;;;;;16.58;8.20;;;4.80;99.90;;;;;;451242;259;27595;-70
2021/04/25 05:02:42;;;;;;;17.95;8.00;;;4.80;99.90;;;;;;469514;253;27994;-70
2021/04/25 05:04:43;;;;;;;14.32;8.05;;;4.80;99.90;;;;;;459039;255;27584;-72
2021/04/25 05:06:45;;;;;;;13.70;7.60;;;4.80;99.90;;;;;;469538;253;27419;-71
2021/04/25 05:08:46;;;;;;;13.30;8.10;;;4.80;99.90;;;;;;459060;258;27615;-71
2021/04/25 05:10:47;;;;;;;17.27;7.90;;;4.80;99.90;;;;;;469536;253;27500;-71
2021/04/25 05:12:48;;;;;;;19.95;8.80;;;4.80;99.90;;;;;;451274;262;27921;-71
2021/04/25 05:14:50;;;;;;;17.98;8.40;;;4.90;99.90;;;;;;469540;253;28002;-73
2021/04/25 05:16:51;;;;;;;13.70;8.27;;;4.90;99.90;;;;;;459044;257;27584;-71
2021/04/25 05:18:52;;;;;;;15.27;8.20;;;4.90;99.90;;;;;;469557;253;27459;-71
2021/04/25 05:20:54;;;;;;;16.15;8.55;;;5.00;99.90;;;;;;459030;258;27632;-71
2021/04/25 05:22:55;;;;;;;14.02;8.38;;;4.90;99.90;;;;;;469013;252;27415;-70
2021/04/25 05:24:56;;;;;;;14.65;8.13;;;4.90;99.90;;;;;;451164;262;27984;-72
2021/04/25 05:26:57;;;;;;;11.52;7.80;;;4.90;99.90;;;;;;469558;253;28029;-71
2021/04/25 05:28:59;;;;;;;19.27;8.73;;;5.00;99.90;;;;;;459037;257;27669;-71
2021/04/25 05:31:00;;;;;;;17.60;8.40;;;5.00;99.90;;;;;;469503;253;27440;-70
2021/04/25 05:33:01;;;;;;;14.52;7.55;;;5.00;99.90;;;;;;459052;255;27585;-71
2021/04/25 05:35:02;;;;;;;14.05;7.30;;;5.00;99.90;;;;;;469485;253;27610;-70
2021/04/25 05:37:04;;;;;;;11.48;7.55;;;5.10;99.90;;;;;;451232;259;27920;-70
2021/04/25 05:39:05;;;;;;;20.05;7.62;;;5.10;99.90;;;;;;469589;253;27463;-71
2021/04/25 05:41:06;;;;;;;15.50;7.62;;;5.10;99.90;;;;;;459052;257;27577;-70
2021/04/25 05:43:07;;;;;;;15.13;7.57;;;5.20;99.90;;;;;;469572;253;27455;-71
2021/04/25 05:45:19;;;;;;;12.20;8.77;;;5.20;99.90;;;;;;459066;258;27596;-71
2021/04/25 05:47:10;;;;;;;18.12;7.53;;;5.20;99.90;;;;;;469622;252;29234;-71
2021/04/25 05:49:11;;;;;;;16.60;7.72;;;5.20;99.90;;;;;;451310;259;28092;-71
2021/04/25 05:51:12;;;;;;;15.90;7.55;;;5.30;99.90;;;;;;469577;253;27461;-71
2021/04/25 05:53:14;;;;;;;10.70;7.47;;;5.30;99.90;;;;;;459038;254;27555;-71
2021/04/25 05:55:15;;;;;;;11.63;6.75;;;5.20;99.90;;;;;;469549;253;28946;-71
2021/04/25 05:57:16;;;;;;;15.13;7.27;;;5.30;99.90;;;;;;459067;258;27556;-70
2021/04/25 05:59:17;;;;;;;9.07;6.77;;;5.20;99.90;;;;;;469503;253;28914;-72
2021/04/25 06:01:19;;;;;;;23.00;7.40;;;5.30;99.90;;;;;;451211;261;29561;-71
2021/04/25 06:03:20;;;;;;;12.73;7.18;;;5.30;99.90;;;;;;469508;253;27958;-71
2021/04/25 06:05:21;;;;;;;12.13;7.12;;;5.40;99.90;;;;;;459012;257;27594;-71
2021/04/25 06:07:22;;;;;;;13.40;6.53;;;5.40;99.90;;;;;;469503;253;27425;-71
2021/04/25 06:09:24;;;;;;;14.97;7.73;;;5.40;99.90;;;;;;458997;257;27573;-71
2021/04/25 06:11:25;;;;;;;13.27;7.80;;;5.40;99.90;;;;;;469469;253;27882;-71
2021/04/25 06:13:26;;;;;;;17.10;7.40;;;5.40;99.90;;;;;;451221;262;27940;-71
2021/04/25 06:15:28;;;;;;;17.80;7.40;;;5.50;99.90;;;;;;469476;253;27940;-71
2021/04/25 06:17:29;;;;;;;10.80;6.78;;;5.50;99.90;;;;;;458944;257;28915;-71
2021/04/25 06:19:30;;;;;;;8.93;6.87;;;5.50;99.90;;;;;;469420;253;27488;-71
2021/04/25 06:21:31;;;;;;;16.52;6.80;;;5.60;99.90;;;;;;458952;255;27664;-71
2021/04/25 06:23:33;;;;;;;11.32;6.80;;;5.70;99.90;;;;;;469480;253;27428;-71
2021/04/25 06:25:34;;;;;;;19.60;7.43;;;5.70;99.90;;;;;;451253;258;27990;-72
2021/04/25 06:27:35;;;;;;;15.55;6.22;;;5.70;99.90;;;;;;469560;253;29325;-71
2021/04/25 06:29:36;;;;;;;17.83;7.70;;;5.90;99.90;;;;;;459022;255;27589;-71
2021/04/25 06:31:38;;;;;;;11.23;5.90;;;5.90;99.90;;;;;;469548;253;28366;-70
2021/04/25 06:33:39;;;;;;;13.93;7.37;;;5.90;99.90;;;;;;458899;258;28166;-71
2021/04/25 06:35:40;;;;;;;14.00;6.77;;;6.00;99.90;;;;;;469436;252;27905;-72
2021/04/25 06:37:41;;;;;;;11.63;6.50;;;6.00;99.90;;;;;;451262;262;28029;-71
2021/04/25 06:39:43;;;;;;;10.70;6.70;;;6.00;99.90;;;;;;469518;253;27536;-71
2021/04/25 06:41:44;;;;;;;9.43;6.23;;;6.10;99.90;;;;;;459035;257;29010;-70
2021/04/25 06:43:45;;;;;;;10.50;5.80;;;6.20;99.90;;;;;;469521;252;27871;-71
2021/04/25 06:45:46;;;;;;;12.87;6.87;;;6.20;99.90;;;;;;459045;253;29420;-72
2021/04/25 06:47:48;;;;;;;11.17;6.40;;;6.20;99.90;;;;;;469569;253;28095;-71
2021/04/25 06:49:49;;;;;;;9.97;7.40;;;6.30;99.90;;;;;;451268;262;28498;-72
2021/04/25 06:51:50;;;;;;;15.90;6.63;;;6.40;99.90;;;;;;469557;252;28251;-70
2021/04/25 06:53:51;;;;;;;11.60;6.80;;;6.40;99.90;;;;;;459027;257;27592;-71
2021/04/25 06:55:53;;;;;;;11.70;6.87;;;6.40;99.90;;;;;;469509;252;27972;-72
2021/04/25 06:57:54;;;;;;;8.30;6.40;;;6.50;99.90;;;;;;459058;257;27905;-71
2021/04/25 06:59:55;;;;;;;8.97;5.67;;;6.60;99.90;;;;;;469533;252;27897;-72
2021/04/25 07:01:56;;;;;;;11.10;6.83;;;6.70;99.90;;;;;;451257;262;28050;-72
2021/04/25 07:03:58;;;;;;;9.27;6.47;;;6.50;99.90;;;;;;469520;253;27810;-72
2021/04/25 07:05:59;;;;;;;13.20;7.10;;;6.60;99.90;;;;;;458653;258;28169;-74
2021/04/25 07:08:00;;;;;;;9.53;6.00;;;6.60;99.90;;;;;;469397;253;28035;-72
2021/04/25 07:10:02;;;;;;;13.60;7.00;;;6.70;99.90;;;;;;458947;257;28149;-72
2021/04/25 07:12:03;;;;;;;9.13;6.37;;;6.80;99.90;;;;;;469523;252;27903;-71
2021/04/25 07:14:04;;;;;;;15.03;6.60;;;6.90;99.90;;;;;;451252;258;28044;-72
2021/04/25 07:16:05;;;;;;;8.47;6.37;;;7.00;99.90;;;;;;469501;253;28492;-73
2021/04/25 07:18:06;;;;;;;12.07;6.57;;;7.00;99.90;;;;;;459022;257;28667;-72
2021/04/25 07:20:08;;;;;;;11.80;6.70;;;7.00;99.90;;;;;;469533;253;28179;-73
2021/04/25 07:22:09;;;;;;;13.50;6.00;;;7.10;99.90;;;;;;459033;257;27669;-72
2021/04/25 07:24:10;;;;;;;10.77;6.43;;;7.20;99.90;;;;;;469517;253;27808;-72
2021/04/25 07:26:12;;;;;;;11.60;6.57;;;7.20;99.90;;;;;;451227;258;28109;-74
2021/04/25 07:28:13;;;;;;;7.93;6.47;;;7.20;99.90;;;;;;469496;253;27896;-72
2021/04/25 07:30:14;;;;;;;11.63;7.03;;;7.30;99.90;;;;;;459001;258;27596;-72
2021/04/25 07:32:15;;;;;;;14.13;6.77;;;7.30;99.90;;;;;;469451;253;27916;-72
2021/04/25 07:34:16;;;;;;;9.23;6.63;;;7.30;99.90;;;;;;459023;257;27911;-73
2021/04/25 07:36:18;;;;;;;9.60;6.30;;;7.40;99.90;;;;;;469474;253;27900;-72
2021/04/25 07:38:19;;;;;;;11.97;6.70;;;7.50;99.90;;;;;;451243;262;27862;-72
2021/04/25 07:40:20;;;;;;;10.40;6.60;;;7.60;99.90;;;;;;469509;253;27596;-73
2021/04/25 07:42:21;;;;;;;14.90;7.73;;;7.50;99.90;;;;;;459056;257;28483;-72
2021/04/25 07:44:23;;;;;;;10.50;6.97;;;7.50;99.90;;;;;;469500;253;28033;-72
2021/04/25 07:46:24;;;;;;;9.67;5.53;;;7.50;99.90;;;;;;459041;257;28509;-72
2021/04/25 07:48:25;;;;;;;11.47;7.03;;;7.70;99.90;;;;;;469502;253;27929;-73
2021/04/25 07:50:26;;;;;;;15.13;7.33;;;7.80;99.90;;;;;;451223;262;28227;-73
2021/04/25 07:52:28;;;;;;;13.37;6.47;;;7.90;99.90;;;;;;469490;253;27931;-72
2021/04/25 07:54:29;;;;;;;9.90;6.57;;;8.00;99.90;;;;;;458985;257;27664;-72
2021/04/25 07:56:30;;;;;;;12.90;6.60;;;8.10;99.90;;;;;;469502;253;27978;-72
2021/04/25 07:58:31;;;;;;;11.20;6.70;;;8.20;99.90;;;;;;458981;257;28098;-73
2021/04/25 08:00:33;;;;;;;10.40;6.13;;;8.20;99.90;;;;;;469513;253;28011;-73
2021/04/25 08:02:34;;;;;;;12.57;6.80;;;8.30;99.90;;;;;;451238;262;28088;-72
2021/04/25 08:04:35;;;;;;;11.70;7.00;;;8.40;99.90;;;;;;469540;253;27982;-72
2021/04/25 08:06:36;;;;;;;10.50;6.03;;;8.30;99.90;;;;;;459041;257;28609;-73
2021/04/25 08:08:38;;;;;;;11.27;6.40;;;8.50;99.90;;;;;;469495;253;28422;-73
2021/04/25 08:10:39;;;;;;;14.77;6.87;;;8.60;99.90;;;;;;459024;257;28640;-73
2021/04/25 08:12:40;;;;;;;11.20;7.23;;;8.70;99.90;;;;;;469158;252;28367;-72
2021/04/25 08:14:41;;;;;;;12.83;6.97;;;8.40;99.90;;;;;;450946;262;27706;-72
2021/04/25 08:16:43;;;;;;;9.90;6.60;;;8.30;99.90;;;;;;469423;253;27912;-72
2021/04/25 08:18:44;;;;;;;10.60;6.93;;;8.30;99.90;;;;;;459023;257;28075;-73
2021/04/25 08:20:45;;;;;;;8.43;5.80;;;8.50;99.90;;;;;;469565;253;27926;-74
2021/04/25 08:22:46;;;;;;;13.17;6.93;;;8.60;99.90;;;;;;459058;257;28103;-73
2021/04/25 08:24:48;;;;;;;17.47;6.80;;;8.60;99.90;;;;;;469581;253;27575;-73
2021/04/25 08:26:49;;;;;;;8.27;5.83;;;8.60;99.90;;;;;;451292;262;27850;-72
2021/04/25 08:28:50;;;;;;;8.53;5.97;;;8.80;99.90;;;;;;469563;253;27941;-73
2021/04/25 08:30:51;;;;;;;17.03;6.30;;;8.90;99.90;;;;;;451205;259;28160;-73
2021/04/25 08:32:53;;;;;;;7.60;5.77;;;8.70;99.90;;;;;;469531;253;27959;-72
2021/04/25 08:34:54;;;;;;;11.03;6.50;;;8.70;99.90;;;;;;459012;257;28311;-72
2021/04/25 08:36:55;;;;;;;10.47;5.60;;;8.90;99.90;;;;;;469466;253;28360;-72
2021/04/25 08:38:56;;;;;;;10.83;5.93;;;9.20;99.90;;;;;;458997;258;28457;-73
2021/04/25 08:40:58;;;;;;;12.23;6.20;;;9.20;99.90;;;;;;469494;253;28383;-73
2021/04/25 08:42:59;;;;;;;13.53;5.53;;;9.20;99.90;;;;;;451238;262;27960;-72
2021/04/25 08:45:00;;;;;;;9.80;6.23;;;9.30;99.90;;;;;;469505;253;27558;-73
2021/04/25 08:47:01;;;;;;;9.40;5.97;;;9.30;99.90;;;;;;458528;257;27975;-72
2021/04/25 08:49:03;;;;;;;10.20;6.13;;;9.40;99.90;;;;;;469561;253;27937;-72
2021/04/25 08:51:04;;;;;;;10.90;6.67;;;9.40;99.90;;;;;;459054;258;28087;-72
2021/04/25 08:53:05;;;;;;;11.40;6.77;;;9.40;99.90;;;;;;469485;252;27908;-72
2021/04/25 08:55:06;;;;;;;10.70;5.53;;;9.30;99.90;;;;;;451243;262;28120;-73
2021/04/25 08:57:08;;;;;;;12.40;6.50;;;9.30;99.90;;;;;;469550;252;27793;-73
2021/04/25 08:59:09;;;;;;;8.30;6.20;;;9.50;99.90;;;;;;458983;257;28034;-73
2021/04/25 09:01:10;;;;;;;17.97;7.13;;;9.60;99.90;;;;;;469520;253;28514;-72
2021/04/25 09:03:11;;;;;;;8.53;5.67;;;9.80;99.90;;;;;;458996;258;28660;-73
2021/04/25 09:05:13;;;;;;;11.47;6.47;;;9.70;99.90;;;;;;469557;253;28566;-74
2021/04/25 09:07:14;;;;;;;12.20;6.73;;;9.80;99.90;;;;;;450589;262;28743;-73
2021/04/25 09:09:15;;;;;;;10.27;5.90;;;9.70;99.90;;;;;;469513;253;27849;-73
2021/04/25 09:11:16;;;;;;;11.30;7.50;;;9.80;99.90;;;;;;459017;257;28053;-72
2021/04/25 09:13:18;;;;;;;8.90;5.90;;;10.00;99.90;;;;;;469508;253;28097;-73
2021/04/25 09:15:20;;;;;;;13.53;9.30;;;10.10;99.90;;;;;;459025;257;28135;-73
2021/04/25 09:17:20;;;;;;;11.43;6.80;;;10.10;99.90;;;;;;469530;252;27797;-73
2021/04/25 09:19:21;;;;;;;12.70;6.80;;;10.10;99.90;;;;;;451271;258;28088;-73
2021/04/25 09:21:23;;;;;;;14.63;7.67;;;9.90;99.90;;;;;;469583;253;27891;-73
2021/04/25 09:23:25;;;;;;;9.20;6.73;;;9.90;99.90;;;;;;459029;255;28067;-73
2021/04/25 09:25:25;;;;;;;13.07;6.67;;;9.80;99.90;;;;;;469584;250;28559;-74
2021/04/25 09:27:26;;;;;;;9.83;6.30;;;9.80;99.90;;;;;;458905;253;28797;-72
2021/04/25 09:29:28;;;;;;;14.47;6.67;;;10.10;99.90;;;;;;469528;253;28270;-73
2021/04/25 09:31:29;;;;;;;15.53;7.80;;;10.10;99.90;;;;;;451269;262;27926;-73
2021/04/25 09:33:30;;;;;;;11.73;6.53;;;10.20;99.90;;;;;;469580;253;28012;-73
2021/04/25 09:35:32;;;;;;;10.73;7.00;;;10.10;99.90;;;;;;459039;257;28407;-73
2021/04/25 09:37:33;;;;;;;8.00;6.03;;;10.40;99.90;;;;;;469601;253;28023;-73
2021/04/25 09:39:34;;;;;;;10.47;6.17;;;10.40;99.90;;;;;;459100;257;28186;-73
2021/04/25 09:41:35;;;;;;;7.90;6.23;;;10.40;99.90;;;;;;469570;253;28274;-73
2021/04/25 09:43:36;;;;;;;11.57;6.00;;;10.30;99.90;;;;;;451270;259;28348;-73
2021/04/25 09:45:38;;;;;;;9.93;6.17;;;10.10;99.90;;;;;;469571;253;28604;-74
2021/04/25 09:47:39;;;;;;;12.03;7.07;;;10.00;99.90;;;;;;459062;257;28638;-75
2021/04/25 09:49:40;;;;;;;10.43;6.70;;;10.00;99.90;;;;;;469565;253;28537;-73
2021/04/25 09:51:41;;;;;;;11.13;7.00;;;9.90;99.90;;;;;;459045;258;28411;-73
2021/04/25 09:53:43;;;;;;;11.40;6.43;;;10.10;99.90;;;;;;469558;253;28218;-74
2021/04/25 09:55:44;;;;;;;10.70;6.70;;;10.60;99.90;;;;;;451025;262;28285;-72
2021/04/25 09:57:45;;;;;;;10.23;6.60;;;10.40;99.90;;;;;;469528;252;28199;-73
2021/04/25 09:59:46;;;;;;;10.90;6.73;;;10.10;99.90;;;;;;458964;255;28417;-73
2021/04/25 10:01:48;;;;;;;9.67;6.37;;;10.20;99.90;;;;;;469512;253;28120;-73
2021/04/25 10:03:49;;;;;;;12.97;6.63;;;10.30;99.90;;;;;;459009;258;28401;-73
2021/04/25 10:05:50;;;;;;;8.07;5.90;;;10.30;99.90;;;;;;469494;252;28634;-74
2021/04/25 10:07:52;;;;;;;9.50;7.60;;;10.60;99.90;;;;;;451213;262;28727;-73
2021/04/25 10:09:53;;;;;;;12.30;7.33;;;10.40;99.90;;;;;;469511;253;28653;-73
2021/04/25 10:11:55;;;;;;;13.13;7.20;;;10.40;99.90;;;;;;459015;257;28384;-73
2021/04/25 10:13:56;;;;;;;12.00;7.20;;;10.30;99.90;;;;;;469577;253;28267;-73
2021/04/25 10:15:57;;;;;;;15.50;6.33;;;10.40;99.90;;;;;;459011;257;28398;-73
2021/04/25 10:17:59;;;;;;;9.60;6.20;;;;;;;;;;469504;253;28126;-73
2021/04/25 10:20:00;;;;;;;11.60;6.50;;;10.70;99.90;;;;;;451241;262;27609;-73
2021/04/25 10:22:02;;;;;;;10.87;6.47;;;10.50;99.90;;;;;;469515;253;28366;-73
2021/04/25 10:24:03;;;;;;;9.43;6.03;;;10.50;99.90;;;;;;459070;257;28370;-73
2021/04/25 10:26:04;;;;;;;9.53;7.00;;;10.60;99.90;;;;;;469580;253;28306;-73
2021/04/25 10:28:05;;;;;;;10.00;6.60;;;10.90;99.90;;;;;;459055;257;28519;-73
2021/04/25 10:30:06;;;;;;;9.10;6.10;;;11.00;99.90;;;;;;469570;253;28159;-73
2021/04/25 10:32:09;;;;;;;7.03;5.60;;;10.80;99.90;;;;;;451296;258;28352;-73